SFQ weather

Şanlıurfa Airport
Şanlıurfa, Şanlıurfa Province, Turkey

Public forecast

Using degrees Celsius for public forecast. Weather courtesy of forecast.io.

METAR (pilot weather report)

Closest report is Şanlıurfa GAP Airport, 21.2 nm (39.3 km) N. Retrieved 2019/06/20 05:20 UTC (5 minutes ago):

LTCS 200520Z 22008KT CAVOK 24/15 Q1010 RMK RWY22 24007KT 210V270

TAF (pilot weather forecast)

Forecast is more than 12 hours old.

Closest forecast is Şanlıurfa GAP Airport, 21.2 nm (39.3 km) N. Retrieved 2019/06/19 00:00 UTC (1 day ago):

TAF LTCS 192240Z 2000/2024 23012KT CAVOK BECMG 2007/2009 SCT040 PROB30 TEMPO 2011/2015 -SHRA FEW020CB BKN030 BECMG 2015/2017 CAVOK